createdAt,value
2023-03-29T00:01:10.032Z,100819.61
2023-03-29T00:03:45.279Z,100813.61
2023-03-29T00:06:14.726Z,100822.08
2023-03-29T00:08:45.373Z,100824.48
2023-03-29T00:11:13.860Z,100820.45
2023-03-29T00:13:42.149Z,100826.29
2023-03-29T00:16:12.498Z,100835.30
2023-03-29T00:18:42.349Z,100833.82
2023-03-29T00:21:12.536Z,100830.14
2023-03-29T00:23:41.609Z,100828.93
2023-03-29T00:26:11.246Z,100830.56
2023-03-29T00:28:42.223Z,100823.04
2023-03-29T00:31:12.319Z,100823.98
2023-03-29T00:33:41.863Z,100823.16
2023-03-29T00:36:11.988Z,100824.51
2023-03-29T00:38:41.101Z,100818.27
2023-03-29T00:41:10.306Z,100816.23
2023-03-29T00:43:58.904Z,100820.67
2023-03-29T00:46:29.450Z,100822.47
2023-03-29T00:49:04.047Z,100826.20
2023-03-29T00:51:35.010Z,100833.97
2023-03-29T00:54:05.859Z,100832.00
2023-03-29T00:56:37.115Z,100829.48
2023-03-29T00:59:06.742Z,100833.17
2023-03-29T01:01:41.539Z,100830.91
2023-03-29T01:04:18.196Z,100828.54
2023-03-29T01:06:49.499Z,100827.95
2023-03-29T01:09:20.582Z,100829.52
2023-03-29T01:11:51.679Z,100833.31
2023-03-29T01:14:23.384Z,100840.56
2023-03-29T01:16:52.896Z,100845.56
2023-03-29T01:19:27.834Z,100840.30
2023-03-29T01:22:03.319Z,100840.13
2023-03-29T01:24:41.471Z,100840.63
2023-03-29T01:27:15.176Z,100846.67
2023-03-29T01:29:46.930Z,100849.37
2023-03-29T01:32:17.272Z,100855.33
2023-03-29T01:34:50.349Z,100855.03
2023-03-29T01:37:24.134Z,100854.92
2023-03-29T01:39:53.464Z,100855.63
2023-03-29T01:42:28.695Z,100856.96
2023-03-29T01:45:04.206Z,100857.35
2023-03-29T01:47:47.813Z,100855.27
2023-03-29T01:50:18.812Z,100858.91
2023-03-29T01:52:51.553Z,100861.81
2023-03-29T01:55:23.036Z,100863.60
2023-03-29T01:57:53.901Z,100866.80
2023-03-29T02:00:25.328Z,100864.24
2023-03-29T02:02:55.531Z,100862.43
2023-03-29T02:05:29.259Z,100860.36
2023-03-29T02:07:59.841Z,100860.15
2023-03-29T02:10:28.757Z,100863.92
2023-03-29T02:12:58.109Z,100865.89
2023-03-29T02:15:28.156Z,100867.52
2023-03-29T02:17:56.861Z,100872.39
2023-03-29T02:20:27.942Z,100873.89
2023-03-29T02:23:01.849Z,100878.09
2023-03-29T02:25:32.043Z,100883.38
2023-03-29T02:28:02.084Z,100878.77
2023-03-29T02:30:33.501Z,100876.66
2023-03-29T02:33:05.210Z,100878.12
2023-03-29T02:35:35.874Z,100878.98
2023-03-29T02:38:05.941Z,100883.64
2023-03-29T02:40:35.819Z,100891.40
2023-03-29T02:43:06.520Z,100896.28
2023-03-29T02:45:36.712Z,100897.05
2023-03-29T02:48:07.988Z,100901.30
2023-03-29T02:50:38.446Z,100904.13
2023-03-29T02:53:12.715Z,100907.16
2023-03-29T02:55:42.299Z,100905.68
2023-03-29T02:58:12.946Z,100907.48
2023-03-29T03:00:44.875Z,100915.20
2023-03-29T03:03:15.034Z,100918.52
2023-03-29T03:05:43.892Z,100920.69
2023-03-29T03:08:13.547Z,100927.73
2023-03-29T03:10:42.598Z,100933.90
2023-03-29T03:13:12.515Z,100941.58
2023-03-29T03:15:42.461Z,100945.15
2023-03-29T03:18:12.728Z,100950.17
2023-03-29T03:20:42.070Z,100953.27
2023-03-29T03:23:11.590Z,100951.29
2023-03-29T03:25:41.445Z,100949.19
2023-03-29T03:28:12.135Z,100952.52
2023-03-29T03:30:41.445Z,100956.27
2023-03-29T03:33:11.201Z,100951.69
2023-03-29T03:35:40.529Z,100952.16
2023-03-29T03:38:10.453Z,100952.83
2023-03-29T03:40:38.973Z,100957.56
2023-03-29T03:43:08.585Z,100958.62
2023-03-29T03:45:38.017Z,100958.84
2023-03-29T03:48:07.254Z,100959.77
2023-03-29T03:50:35.718Z,100961.52
2023-03-29T03:53:04.875Z,100965.34
2023-03-29T03:55:33.980Z,100972.48
2023-03-29T03:58:02.706Z,100973.58
2023-03-29T04:00:30.973Z,100979.60
2023-03-29T04:03:01.970Z,100981.94
2023-03-29T04:05:30.879Z,100986.99
2023-03-29T04:08:00.280Z,100991.62
2023-03-29T04:10:29.158Z,100996.46
2023-03-29T04:12:58.654Z,101007.70
2023-03-29T04:15:28.387Z,101009.23
2023-03-29T04:17:56.916Z,101015.60
2023-03-29T04:20:25.868Z,101021.30
2023-03-29T04:22:55.397Z,101027.27
2023-03-29T04:25:24.732Z,101025.38
2023-03-29T04:27:53.075Z,101025.87
2023-03-29T04:30:21.543Z,101027.85
2023-03-29T04:32:50.161Z,101029.95
2023-03-29T04:35:18.565Z,101036.99
2023-03-29T04:37:48.247Z,101038.13
2023-03-29T04:40:19.257Z,101041.01
2023-03-29T04:42:47.699Z,101049.67
2023-03-29T04:45:17.402Z,101048.00
2023-03-29T04:47:47.741Z,101049.90
2023-03-29T04:50:16.436Z,101052.43
2023-03-29T04:52:45.322Z,101050.31
2023-03-29T04:55:14.320Z,101050.91
2023-03-29T04:57:44.102Z,101057.02
2023-03-29T05:00:15.004Z,101060.66
2023-03-29T05:02:44.231Z,101072.66
2023-03-29T05:05:13.989Z,101074.93
2023-03-29T05:07:43.786Z,101075.44
2023-03-29T05:10:13.508Z,101081.27
2023-03-29T05:12:44.088Z,101085.61
2023-03-29T05:15:14.360Z,101082.04
2023-03-29T05:17:43.365Z,101087.64
2023-03-29T05:20:13.093Z,101087.87
2023-03-29T05:22:43.757Z,101082.53
2023-03-29T05:25:13.057Z,101076.34
2023-03-29T05:27:42.793Z,101081.05
2023-03-29T05:30:14.742Z,101087.90
2023-03-29T05:32:43.229Z,101090.06
2023-03-29T05:35:13.834Z,101096.73
2023-03-29T05:37:43.314Z,101096.23
2023-03-29T05:40:12.967Z,101093.60
2023-03-29T05:42:43.958Z,101097.55
2023-03-29T05:45:13.150Z,101089.88
2023-03-29T05:47:43.658Z,101095.86
2023-03-29T05:50:13.330Z,101098.05
2023-03-29T05:52:44.180Z,101100.47
2023-03-29T05:55:13.315Z,101105.24
2023-03-29T05:57:44.103Z,101101.96
2023-03-29T06:00:19.433Z,101103.27
2023-03-29T06:02:47.965Z,101102.94
2023-03-29T06:05:16.763Z,101115.75
2023-03-29T06:07:45.271Z,101109.13
2023-03-29T06:10:13.739Z,101110.50
2023-03-29T06:12:42.989Z,101108.89
2023-03-29T06:15:13.598Z,101109.89
2023-03-29T06:17:44.396Z,101114.02
2023-03-29T06:20:14.342Z,101120.95
2023-03-29T06:22:46.182Z,101119.90
2023-03-29T06:25:17.050Z,101119.25
2023-03-29T06:27:48.109Z,101126.64
2023-03-29T06:30:16.974Z,101122.14
2023-03-29T06:32:45.671Z,101127.50
2023-03-29T06:35:14.592Z,101126.30
2023-03-29T06:37:48.969Z,101124.54
2023-03-29T06:40:18.626Z,101126.20
2023-03-29T06:42:47.423Z,101126.22
2023-03-29T06:45:16.456Z,101128.59
2023-03-29T06:47:47.052Z,101126.40
2023-03-29T06:50:16.909Z,101126.77
2023-03-29T06:52:47.352Z,101130.08
2023-03-29T06:55:15.971Z,101130.60
2023-03-29T06:57:44.265Z,101133.32
2023-03-29T07:00:15.962Z,101138.56
2023-03-29T07:02:45.235Z,101137.34
2023-03-29T07:05:14.411Z,101135.35
2023-03-29T07:07:56.046Z,101138.43
2023-03-29T07:10:25.924Z,101138.38
2023-03-29T07:12:54.807Z,101142.27
2023-03-29T07:15:23.362Z,101138.35
2023-03-29T07:17:51.849Z,101133.91
2023-03-29T07:20:22.425Z,101141.38
2023-03-29T07:22:51.572Z,101140.59
2023-03-29T07:25:21.761Z,101143.24
2023-03-29T07:27:51.556Z,101145.54
2023-03-29T07:30:23.171Z,101140.95
2023-03-29T07:32:53.040Z,101146.21
2023-03-29T07:35:22.700Z,101141.66
2023-03-29T07:37:51.203Z,101135.49
2023-03-29T07:40:22.860Z,101135.50
2023-03-29T07:42:52.597Z,101137.41
2023-03-29T07:45:26.625Z,101137.23
2023-03-29T07:47:57.764Z,101136.09
2023-03-29T07:50:26.917Z,101134.21
2023-03-29T07:52:56.321Z,101137.09
2023-03-29T07:55:24.684Z,101138.99
2023-03-29T07:57:53.136Z,101138.48
2023-03-29T08:00:24.336Z,101142.02
2023-03-29T08:02:52.932Z,101139.06
2023-03-29T08:05:33.838Z,101137.31
2023-03-29T08:08:10.178Z,101138.77
2023-03-29T08:10:39.551Z,101139.90
2023-03-29T08:13:08.738Z,101140.80
2023-03-29T08:15:38.668Z,101136.66
2023-03-29T08:18:08.064Z,101135.41
2023-03-29T08:20:36.605Z,101134.67
2023-03-29T08:23:05.095Z,101129.52
2023-03-29T08:25:34.639Z,101126.45
2023-03-29T08:28:02.956Z,101117.04
2023-03-29T08:30:31.178Z,101116.46
2023-03-29T08:32:59.392Z,101115.27
2023-03-29T08:35:27.647Z,101106.54
2023-03-29T08:37:55.988Z,101104.16
2023-03-29T08:40:26.731Z,101103.09
2023-03-29T08:43:14.793Z,101097.52
2023-03-29T08:45:51.012Z,101107.39
2023-03-29T08:48:23.146Z,101107.02
2023-03-29T08:50:54.325Z,101107.92
2023-03-29T08:53:28.119Z,101111.91
2023-03-29T08:55:58.096Z,101116.63
2023-03-29T08:58:29.446Z,101118.09
2023-03-29T09:01:01.730Z,101117.91
2023-03-29T09:03:32.318Z,101105.97
2023-03-29T09:06:04.095Z,101124.54
2023-03-29T09:08:35.284Z,101149.64
2023-03-29T09:11:13.546Z,101141.66
2023-03-29T09:13:52.677Z,101127.47
2023-03-29T09:16:26.908Z,101140.29
2023-03-29T09:19:02.755Z,101157.01
2023-03-29T09:21:34.199Z,101154.23
2023-03-29T09:24:09.733Z,101153.67
2023-03-29T09:26:40.248Z,101156.41
2023-03-29T09:29:15.386Z,101158.16
2023-03-29T09:31:44.548Z,101168.39
2023-03-29T09:34:15.924Z,101160.52
2023-03-29T09:36:49.892Z,101165.36
2023-03-29T09:39:20.282Z,101162.95
2023-03-29T09:41:52.058Z,101159.71
2023-03-29T09:44:30.918Z,101165.79
2023-03-29T09:47:03.424Z,101166.14
2023-03-29T09:49:34.586Z,101165.75
2023-03-29T09:52:05.638Z,101154.14
2023-03-29T09:54:35.140Z,101153.89
2023-03-29T09:57:04.054Z,101164.02
2023-03-29T09:59:32.884Z,101164.77
2023-03-29T10:02:06.851Z,101165.48
2023-03-29T10:04:35.337Z,101161.80
2023-03-29T10:07:04.227Z,101162.52
2023-03-29T10:09:33.714Z,101165.98
2023-03-29T10:12:06.166Z,101162.27
2023-03-29T10:14:36.472Z,101169.11
2023-03-29T10:17:07.237Z,101169.67
2023-03-29T10:19:36.134Z,101194.88
2023-03-29T10:22:07.020Z,101180.98
2023-03-29T10:24:35.761Z,101176.40
2023-03-29T10:27:07.282Z,101190.23
2023-03-29T10:29:37.407Z,101190.81
2023-03-29T10:32:15.690Z,101195.75
2023-03-29T10:34:46.492Z,101205.48
2023-03-29T10:37:18.537Z,101220.41
2023-03-29T10:39:47.984Z,101243.84
2023-03-29T10:42:18.329Z,101237.98
2023-03-29T10:44:53.813Z,101236.58
2023-03-29T10:47:22.745Z,101224.14
2023-03-29T10:49:55.148Z,101217.42
2023-03-29T10:52:25.581Z,101223.08
2023-03-29T10:54:54.974Z,101203.69
2023-03-29T10:57:27.254Z,101198.54
2023-03-29T10:59:59.912Z,101191.63
2023-03-29T11:02:45.484Z,101183.05
2023-03-29T11:05:28.803Z,101186.63
2023-03-29T11:08:06.423Z,101182.64
2023-03-29T11:10:39.574Z,101186.07
2023-03-29T11:13:12.677Z,101184.19
2023-03-29T11:15:46.429Z,101179.32
2023-03-29T11:18:35.024Z,101180.91
2023-03-29T11:21:10.718Z,101172.95
2023-03-29T11:23:46.588Z,101170.65
2023-03-29T11:26:18.169Z,101174.70
2023-03-29T11:28:50.243Z,101164.55
2023-03-29T11:31:23.481Z,101161.06
2023-03-29T11:33:58.108Z,101166.20
2023-03-29T11:36:31.735Z,101159.51
2023-03-29T11:39:04.524Z,101155.65
2023-03-29T11:41:34.911Z,101152.10
2023-03-29T11:44:05.820Z,101157.47
2023-03-29T11:46:37.448Z,101161.59
2023-03-29T11:49:10.068Z,101156.29
2023-03-29T11:51:42.037Z,101155.08
2023-03-29T11:54:14.486Z,101152.10
2023-03-29T11:56:44.950Z,101161.57
2023-03-29T11:59:17.461Z,101152.16
2023-03-29T12:01:49.080Z,101151.18
2023-03-29T12:04:25.053Z,101144.52
2023-03-29T12:06:58.503Z,101144.52
2023-03-29T12:09:34.256Z,101148.87
2023-03-29T12:12:07.137Z,101152.42
2023-03-29T12:14:42.731Z,101148.10
2023-03-29T12:17:13.658Z,101146.73
2023-03-29T12:19:47.185Z,101145.18
2023-03-29T12:22:20.225Z,101144.77
2023-03-29T12:24:52.296Z,101144.36
2023-03-29T12:27:25.581Z,101144.10
2023-03-29T12:30:10.610Z,101156.43
2023-03-29T12:32:46.371Z,101162.04
2023-03-29T12:35:46.477Z,101163.04
2023-03-29T12:38:20.799Z,101153.04
2023-03-29T12:40:55.573Z,101153.83
2023-03-29T12:43:25.895Z,101164.80
2023-03-29T12:45:56.101Z,101155.65
2023-03-29T12:48:26.907Z,101164.43
2023-03-29T12:51:00.496Z,101162.50
2023-03-29T12:53:33.350Z,101165.07
2023-03-29T12:56:09.567Z,101161.29
2023-03-29T12:58:42.391Z,101159.27
2023-03-29T13:01:25.941Z,101156.95
2023-03-29T13:04:14.055Z,101145.58
2023-03-29T13:06:55.758Z,101139.20
2023-03-29T13:09:30.015Z,101140.77
2023-03-29T13:12:04.319Z,101141.30
2023-03-29T13:14:38.127Z,101140.09
2023-03-29T13:17:18.272Z,101143.75
2023-03-29T13:19:55.381Z,101142.19
2023-03-29T13:22:42.092Z,101143.58
2023-03-29T13:25:21.403Z,101149.36
2023-03-29T13:28:01.035Z,101148.16
2023-03-29T13:30:46.735Z,101151.69
2023-03-29T13:33:35.212Z,101150.46
2023-03-29T13:36:17.054Z,101146.22
2023-03-29T13:38:54.845Z,101146.23
2023-03-29T13:41:28.859Z,101144.67
2023-03-29T13:43:58.183Z,101149.23
2023-03-29T13:46:41.139Z,101155.34
2023-03-29T13:49:19.110Z,101153.58
2023-03-29T13:52:03.274Z,101155.35
2023-03-29T13:54:33.838Z,101155.89
2023-03-29T13:57:05.075Z,101154.41
2023-03-29T13:59:38.911Z,101153.02
2023-03-29T14:02:13.874Z,101157.20
2023-03-29T14:04:45.604Z,101157.59
2023-03-29T14:07:26.960Z,101160.05
2023-03-29T14:10:00.969Z,101161.49
2023-03-29T14:12:34.132Z,101159.52
2023-03-29T14:15:04.446Z,101162.12
2023-03-29T14:17:36.111Z,101162.77
2023-03-29T14:20:09.308Z,101164.40
2023-03-29T14:22:43.556Z,101160.58
2023-03-29T14:25:18.344Z,101151.66
2023-03-29T14:27:48.637Z,101154.27
2023-03-29T14:30:22.378Z,101155.56
2023-03-29T14:32:52.087Z,101159.39
2023-03-29T14:35:27.452Z,101158.98
2023-03-29T14:37:57.498Z,101154.86
2023-03-29T14:40:27.145Z,101153.91
2023-03-29T14:42:58.220Z,101158.92
2023-03-29T14:45:29.410Z,101157.20
2023-03-29T14:47:59.063Z,101154.09
2023-03-29T14:50:30.838Z,101155.26
2023-03-29T14:53:02.276Z,101156.41
2023-03-29T14:55:36.137Z,101157.86
2023-03-29T14:58:27.049Z,101161.98
2023-03-29T15:00:55.547Z,101164.99
2023-03-29T15:03:42.477Z,101169.09
2023-03-29T15:06:18.556Z,101167.05
2023-03-29T15:09:05.978Z,101165.84
2023-03-29T15:11:39.278Z,101164.63
2023-03-29T15:14:53.065Z,101166.59
2023-03-29T15:17:42.650Z,101173.46
2023-03-29T15:20:20.936Z,101172.57
2023-03-29T15:22:56.575Z,101174.08
2023-03-29T15:25:36.448Z,101174.14
2023-03-29T15:28:42.184Z,101174.95
2023-03-29T15:31:15.077Z,101178.46
2023-03-29T15:33:47.266Z,101180.39
2023-03-29T15:36:28.125Z,101186.92
2023-03-29T15:39:02.911Z,101188.27
2023-03-29T15:41:34.717Z,101193.54
2023-03-29T15:44:08.672Z,101189.40
2023-03-29T15:46:43.253Z,101192.86
2023-03-29T15:49:20.211Z,101194.98
2023-03-29T15:51:55.127Z,101198.14
2023-03-29T15:54:28.511Z,101204.88
2023-03-29T15:57:02.026Z,101210.64
2023-03-29T15:59:43.071Z,101212.64
2023-03-29T16:02:25.820Z,101218.58
2023-03-29T16:04:57.949Z,101219.05
2023-03-29T16:07:26.453Z,101221.18
2023-03-29T16:09:56.673Z,101224.84
2023-03-29T16:12:28.252Z,101228.98
2023-03-29T16:14:59.152Z,101232.09
2023-03-29T16:17:30.531Z,101238.85
2023-03-29T16:20:04.475Z,101239.91
2023-03-29T16:22:37.766Z,101240.95
2023-03-29T16:25:16.533Z,101241.86
2023-03-29T16:27:53.692Z,101246.80
2023-03-29T16:30:26.657Z,101253.27
2023-03-29T16:32:58.498Z,101262.52
2023-03-29T16:35:35.957Z,101262.77
2023-03-29T16:38:14.021Z,101266.84
2023-03-29T16:40:47.813Z,101272.78
2023-03-29T16:43:18.744Z,101281.50
2023-03-29T16:45:50.736Z,101287.13
2023-03-29T16:48:21.828Z,101287.73
2023-03-29T16:51:00.062Z,101290.59
2023-03-29T16:53:34.004Z,101294.13
2023-03-29T16:56:03.089Z,101298.52
2023-03-29T16:58:31.687Z,101302.73
2023-03-29T17:01:09.180Z,101306.24
2023-03-29T17:03:37.815Z,101310.06
2023-03-29T17:06:07.395Z,101315.61
2023-03-29T17:08:36.023Z,101314.88
2023-03-29T17:11:05.796Z,101326.05
2023-03-29T17:13:34.542Z,101330.73
2023-03-29T17:16:03.622Z,101332.75
2023-03-29T17:18:32.746Z,101334.61
2023-03-29T17:21:01.114Z,101334.89
2023-03-29T17:23:29.727Z,101341.98
2023-03-29T17:25:58.266Z,101348.54
2023-03-29T17:28:26.678Z,101347.27
2023-03-29T17:30:55.397Z,101352.43
2023-03-29T17:33:25.667Z,101354.45
2023-03-29T17:35:55.618Z,101360.42
2023-03-29T17:38:25.093Z,101363.23
2023-03-29T17:40:53.611Z,101362.63
2023-03-29T17:43:22.346Z,101368.48
2023-03-29T17:45:51.653Z,101373.11
2023-03-29T17:48:23.023Z,101375.64
2023-03-29T17:50:52.439Z,101380.80
2023-03-29T17:53:21.087Z,101386.20
2023-03-29T17:55:51.943Z,101390.15
2023-03-29T17:58:21.582Z,101390.41
2023-03-29T18:00:51.423Z,101396.19
2023-03-29T18:03:20.688Z,101399.40
2023-03-29T18:05:49.959Z,101400.20
2023-03-29T18:08:19.137Z,101401.86
2023-03-29T18:10:48.918Z,101406.52
2023-03-29T18:13:18.380Z,101406.27
2023-03-29T18:15:47.240Z,101407.55
2023-03-29T18:18:16.240Z,101406.27
2023-03-29T18:20:45.595Z,101409.35
2023-03-29T18:23:14.424Z,101416.09
2023-03-29T18:25:43.054Z,101419.68
2023-03-29T18:28:12.077Z,101423.66
2023-03-29T18:30:40.509Z,101424.45
2023-03-29T18:33:09.486Z,101424.23
2023-03-29T18:35:39.734Z,101427.16
2023-03-29T18:38:08.310Z,101423.29
2023-03-29T18:40:38.602Z,101427.95
2023-03-29T18:43:07.915Z,101427.89
2023-03-29T18:45:37.039Z,101427.70
2023-03-29T18:48:08.934Z,101425.90
2023-03-29T18:50:38.305Z,101427.81
2023-03-29T18:53:06.953Z,101435.83
2023-03-29T18:55:38.105Z,101439.27
2023-03-29T18:58:06.649Z,101440.27
2023-03-29T19:00:34.984Z,101438.65
2023-03-29T19:03:04.173Z,101443.02
2023-03-29T19:05:34.725Z,101442.05
2023-03-29T19:08:05.411Z,101440.89
2023-03-29T19:10:35.881Z,101438.41
2023-03-29T19:13:05.706Z,101436.42
2023-03-29T19:15:34.096Z,101436.17
2023-03-29T19:18:02.985Z,101439.14
2023-03-29T19:20:31.648Z,101441.67
2023-03-29T19:23:02.303Z,101435.23
2023-03-29T19:25:31.757Z,101439.00
2023-03-29T19:28:02.883Z,101439.35
2023-03-29T19:30:35.989Z,101436.58
2023-03-29T19:33:04.524Z,101436.14
2023-03-29T19:35:33.172Z,101437.09
2023-03-29T19:38:01.773Z,101438.59
2023-03-29T19:40:30.440Z,101439.17
2023-03-29T19:42:58.784Z,101434.84
2023-03-29T19:45:27.468Z,101430.94
2023-03-29T19:47:57.518Z,101436.14
2023-03-29T19:50:26.212Z,101434.39
2023-03-29T19:52:56.696Z,101435.69
2023-03-29T19:55:26.309Z,101431.52
2023-03-29T19:57:55.018Z,101432.81
2023-03-29T20:00:24.753Z,101434.73
2023-03-29T20:02:54.969Z,101433.15
2023-03-29T20:05:23.960Z,101437.80
2023-03-29T20:07:53.821Z,101437.56
2023-03-29T20:10:23.428Z,101442.92
2023-03-29T20:12:51.862Z,101448.35
2023-03-29T20:15:20.535Z,101449.15
2023-03-29T20:17:52.424Z,101450.21
2023-03-29T20:20:23.604Z,101448.98
2023-03-29T20:22:53.527Z,101442.81
2023-03-29T20:25:22.025Z,101440.43
2023-03-29T20:27:51.080Z,101441.94
2023-03-29T20:30:20.442Z,101443.41
2023-03-29T20:32:51.793Z,101444.81
2023-03-29T20:35:20.810Z,101444.50
2023-03-29T20:37:51.669Z,101450.82
2023-03-29T20:40:22.401Z,101449.19
2023-03-29T20:42:53.538Z,101445.36
2023-03-29T20:45:21.868Z,101440.08
2023-03-29T20:47:55.637Z,101439.06
2023-03-29T20:50:26.111Z,101439.17
2023-03-29T20:52:54.837Z,101435.23
2023-03-29T20:55:23.933Z,101437.63
2023-03-29T20:57:53.929Z,101436.05
2023-03-29T21:00:23.257Z,101438.36
2023-03-29T21:02:52.303Z,101436.31
2023-03-29T21:05:20.956Z,101439.75
2023-03-29T21:07:50.532Z,101441.08
2023-03-29T21:10:20.195Z,101441.14
2023-03-29T21:12:49.912Z,101446.70
2023-03-29T21:15:19.214Z,101452.77
2023-03-29T21:17:49.002Z,101454.47
2023-03-29T21:20:19.141Z,101453.37
2023-03-29T21:22:47.340Z,101459.65
2023-03-29T21:25:16.614Z,101462.24
2023-03-29T21:27:45.101Z,101465.64
2023-03-29T21:30:13.817Z,101463.39
2023-03-29T21:32:42.325Z,101466.31
2023-03-29T21:35:11.214Z,101463.31
2023-03-29T21:37:39.467Z,101462.25
2023-03-29T21:40:10.107Z,101465.64
2023-03-29T21:42:38.541Z,101466.75
2023-03-29T21:45:08.410Z,101468.31
2023-03-29T21:47:37.111Z,101472.30
2023-03-29T21:50:06.573Z,101473.77
2023-03-29T21:52:37.296Z,101476.88
2023-03-29T21:55:06.099Z,101482.27
2023-03-29T21:57:34.658Z,101486.88
2023-03-29T22:00:04.621Z,101485.59
2023-03-29T22:02:33.260Z,101484.61
2023-03-29T22:05:01.940Z,101482.13
2023-03-29T22:07:30.264Z,101481.50
2023-03-29T22:10:03.661Z,101479.52
2023-03-29T22:12:34.072Z,101484.09
2023-03-29T22:15:02.480Z,101479.66
2023-03-29T22:17:30.787Z,101481.87
2023-03-29T22:20:02.155Z,101485.04
2023-03-29T22:22:30.502Z,101484.73
2023-03-29T22:24:58.937Z,101483.40
2023-03-29T22:27:27.714Z,101477.55
2023-03-29T22:29:55.916Z,101482.68
2023-03-29T22:32:24.170Z,101485.70
2023-03-29T22:34:53.081Z,101485.38
2023-03-29T22:37:22.057Z,101490.13
2023-03-29T22:39:51.260Z,101489.79
2023-03-29T22:42:22.398Z,101489.59
2023-03-29T22:44:51.482Z,101487.23
2023-03-29T22:47:20.899Z,101482.30
2023-03-29T22:49:52.747Z,101494.31
2023-03-29T22:52:22.367Z,101485.64
2023-03-29T22:54:51.340Z,101485.11
2023-03-29T22:57:20.508Z,101485.52
2023-03-29T22:59:49.849Z,101490.83
2023-03-29T23:02:18.320Z,101487.77
2023-03-29T23:04:47.578Z,101493.49
2023-03-29T23:07:16.828Z,101493.26
2023-03-29T23:09:49.423Z,101493.66
2023-03-29T23:12:17.774Z,101491.37
2023-03-29T23:14:46.990Z,101489.48
2023-03-29T23:17:19.560Z,101493.19
2023-03-29T23:19:48.146Z,101493.66
2023-03-29T23:22:17.349Z,101498.55
2023-03-29T23:24:46.755Z,101495.67
2023-03-29T23:27:15.476Z,101497.39
2023-03-29T23:29:44.817Z,101493.27
2023-03-29T23:32:13.542Z,101497.98
2023-03-29T23:34:42.053Z,101498.68
2023-03-29T23:37:10.325Z,101499.17
2023-03-29T23:39:39.077Z,101492.25
2023-03-29T23:42:07.694Z,101494.98
2023-03-29T23:44:37.155Z,101495.77
2023-03-29T23:47:06.534Z,101495.38
2023-03-29T23:49:35.740Z,101499.61
2023-03-29T23:52:04.323Z,101504.73
2023-03-29T23:54:33.052Z,101502.50
2023-03-29T23:57:01.372Z,101497.81
2023-03-29T23:59:30.608Z,101500.45
